createdAt,value
2022-12-13T00:04:27.064Z,18.73
2022-12-13T00:09:29.404Z,18.03
2022-12-13T00:14:32.911Z,16.23
2022-12-13T00:19:34.983Z,18.10
2022-12-13T00:24:41.415Z,18.23
2022-12-13T00:29:48.552Z,18.00
2022-12-13T00:34:50.460Z,16.57
2022-12-13T00:39:52.248Z,15.83
2022-12-13T00:44:55.682Z,19.33
2022-12-13T00:49:58.759Z,16.43
2022-12-13T00:55:00.838Z,17.17
2022-12-13T01:00:05.885Z,19.33
2022-12-13T01:05:08.907Z,13.97
2022-12-13T01:10:12.506Z,17.87
2022-12-13T01:15:16.288Z,20.27
2022-12-13T01:20:18.804Z,16.63
2022-12-13T01:25:21.583Z,14.23
2022-12-13T01:30:25.875Z,13.73
2022-12-13T01:35:27.915Z,12.57
2022-12-13T01:40:29.594Z,10.37
2022-12-13T01:45:34.038Z,11.37
2022-12-13T01:50:39.457Z,15.83
2022-12-13T01:55:45.438Z,12.40
2022-12-13T02:00:49.819Z,13.50
2022-12-13T02:06:00.367Z,13.97
2022-12-13T02:11:03.595Z,17.93
2022-12-13T02:16:12.932Z,16.33
2022-12-13T02:21:34.876Z,19.30
2022-12-13T02:27:00.782Z,15.30
2022-12-13T02:32:13.255Z,15.27
2022-12-13T02:37:22.952Z,12.70
2022-12-13T02:42:29.973Z,16.47
2022-12-13T02:47:35.938Z,16.47
2022-12-13T02:52:40.613Z,17.10
2022-12-13T02:57:44.696Z,15.80
2022-12-13T03:03:02.292Z,16.43
2022-12-13T03:08:19.370Z,14.93
2022-12-13T03:13:29.163Z,10.13
2022-12-13T03:18:34.542Z,15.67
2022-12-13T03:23:37.507Z,13.63
2022-12-13T03:28:40.685Z,16.27
2022-12-13T03:33:44.524Z,15.63
2022-12-13T03:38:48.040Z,16.47
2022-12-13T03:43:50.588Z,15.97
2022-12-13T03:48:54.008Z,16.57
2022-12-13T03:53:58.077Z,16.30
2022-12-13T03:59:00.174Z,14.80
2022-12-13T04:04:03.682Z,16.27
2022-12-13T04:09:05.960Z,11.83
2022-12-13T04:14:07.838Z,14.20
2022-12-13T04:19:11.364Z,14.40
2022-12-13T04:24:13.351Z,15.60
2022-12-13T04:29:15.584Z,17.23
2022-12-13T04:34:19.192Z,13.63
2022-12-13T04:39:22.607Z,14.03
2022-12-13T04:44:27.619Z,10.30
2022-12-13T04:49:33.755Z,10.67
2022-12-13T04:54:37.111Z,11.63
2022-12-13T04:59:39.785Z,14.03
2022-12-13T05:04:44.632Z,15.70
2022-12-13T05:09:46.802Z,14.80
2022-12-13T05:14:49.049Z,16.10
2022-12-13T05:19:52.587Z,10.70
2022-12-13T05:24:54.747Z,13.20
2022-12-13T05:30:03.051Z,13.00
2022-12-13T05:35:08.378Z,14.37
2022-12-13T05:40:10.625Z,13.83
2022-12-13T05:45:13.161Z,14.33
2022-12-13T05:50:17.865Z,17.37
2022-12-13T05:55:20.430Z,16.33
2022-12-13T06:00:28.300Z,16.93
2022-12-13T06:05:34.221Z,17.50
2022-12-13T06:10:36.768Z,15.20
2022-12-13T06:15:44.477Z,14.03
2022-12-13T06:20:56.288Z,14.37
2022-12-13T06:25:58.706Z,12.47
2022-12-13T06:31:01.495Z,12.20
2022-12-13T06:36:05.409Z,12.63
2022-12-13T06:41:10.054Z,17.50
2022-12-13T06:46:13.036Z,16.93
2022-12-13T06:51:22.556Z,18.30
2022-12-13T06:56:25.270Z,12.97
2022-12-13T07:01:27.533Z,15.93
2022-12-13T07:06:41.144Z,14.70
2022-12-13T07:11:47.081Z,14.37
2022-12-13T07:17:01.163Z,19.70
2022-12-13T07:22:06.993Z,14.43
2022-12-13T07:27:09.094Z,15.13
2022-12-13T07:32:12.167Z,18.20
2022-12-13T07:37:30.113Z,10.73
2022-12-13T07:42:33.088Z,16.33
2022-12-13T07:47:35.394Z,13.17
2022-12-13T07:52:39.084Z,13.90
2022-12-13T07:57:40.868Z,14.20
2022-12-13T08:02:43.023Z,15.70
2022-12-13T08:07:46.400Z,13.97
2022-12-13T08:12:48.587Z,11.33
2022-12-13T08:17:50.992Z,12.30
2022-12-13T08:23:01.822Z,12.57
2022-12-13T08:28:05.203Z,15.97
2022-12-13T08:33:07.721Z,12.87
2022-12-13T08:38:11.696Z,12.93
2022-12-13T08:43:13.914Z,15.47
2022-12-13T08:48:16.041Z,9.93
2022-12-13T08:53:28.215Z,10.27
2022-12-13T08:58:32.366Z,11.50
2022-12-13T09:03:34.996Z,13.57
2022-12-13T09:08:39.403Z,11.43
2022-12-13T09:13:43.797Z,11.17
2022-12-13T09:18:55.191Z,8.23
2022-12-13T09:24:01.350Z,11.50
2022-12-13T09:29:11.214Z,11.27
2022-12-13T09:34:14.010Z,10.27
2022-12-13T09:39:17.889Z,8.73
2022-12-13T09:44:32.584Z,9.80
2022-12-13T09:49:52.343Z,8.43
2022-12-13T09:54:59.275Z,10.27
2022-12-13T10:00:06.318Z,10.57
2022-12-13T10:05:22.296Z,8.43
2022-12-13T10:10:27.762Z,8.30
2022-12-13T10:15:33.482Z,7.13
2022-12-13T10:20:36.477Z,8.90
2022-12-13T10:25:51.068Z,10.23
2022-12-13T10:30:54.192Z,11.60
2022-12-13T10:36:05.973Z,9.87
2022-12-13T10:41:31.429Z,12.63
2022-12-13T10:46:38.719Z,9.00
2022-12-13T10:51:41.116Z,9.50
2022-12-13T10:56:47.252Z,9.00
2022-12-13T11:01:49.040Z,7.43
2022-12-13T11:06:54.147Z,9.33
2022-12-13T11:12:01.115Z,6.87
2022-12-13T11:17:09.493Z,9.63
2022-12-13T11:22:21.125Z,8.47
2022-12-13T11:27:44.169Z,11.17
2022-12-13T11:32:59.892Z,6.57
2022-12-13T11:38:11.389Z,5.40
2022-12-13T11:43:26.497Z,7.07
2022-12-13T11:48:41.122Z,10.40
2022-12-13T11:53:52.820Z,7.93
2022-12-13T11:59:11.311Z,7.00
2022-12-13T12:04:29.972Z,12.07
2022-12-13T12:09:35.058Z,6.80
2022-12-13T12:14:43.498Z,7.60
2022-12-13T12:19:51.303Z,12.70
2022-12-13T12:25:03.505Z,9.90
2022-12-13T12:30:23.798Z,8.50
2022-12-13T12:35:46.383Z,9.00
2022-12-13T12:41:17.507Z,7.43
2022-12-13T12:47:09.150Z,9.23
2022-12-13T12:52:14.486Z,10.77
2022-12-13T12:57:24.786Z,7.63
2022-12-13T13:02:36.811Z,8.90
2022-12-13T13:07:43.560Z,8.87
2022-12-13T13:13:11.473Z,11.33
2022-12-13T13:18:49.194Z,11.23
2022-12-13T13:24:06.557Z,10.20
2022-12-13T13:29:37.507Z,10.10
2022-12-13T13:34:42.932Z,11.73
2022-12-13T13:39:59.681Z,12.50
2022-12-13T13:45:20.921Z,9.57
2022-12-13T13:50:53.298Z,11.53
2022-12-13T13:56:02.000Z,9.43
2022-12-13T14:01:48.871Z,9.93
2022-12-13T14:07:26.445Z,9.63
2022-12-13T14:13:14.505Z,10.67
2022-12-13T14:18:51.779Z,11.33
2022-12-13T14:24:12.124Z,8.80
2022-12-13T14:29:16.895Z,5.93
2022-12-13T14:34:22.808Z,8.30
2022-12-13T14:39:26.640Z,7.57
2022-12-13T14:44:30.209Z,8.10
2022-12-13T14:49:35.260Z,8.90
2022-12-13T14:54:45.593Z,9.87
2022-12-13T14:59:50.603Z,7.97
2022-12-13T15:04:53.992Z,10.93
2022-12-13T15:10:00.667Z,9.37
2022-12-13T15:15:06.042Z,12.53
2022-12-13T15:20:23.362Z,11.97
2022-12-13T15:25:27.784Z,14.53
2022-12-13T15:30:34.022Z,11.97
2022-12-13T15:35:36.832Z,8.67
2022-12-13T15:40:44.045Z,10.47
2022-12-13T15:45:48.001Z,7.07
2022-12-13T15:50:50.355Z,10.40
2022-12-13T15:55:53.924Z,10.80
2022-12-13T16:00:56.148Z,12.10
2022-12-13T16:05:58.314Z,10.70
2022-12-13T16:11:02.307Z,8.80
2022-12-13T16:16:26.675Z,9.63
2022-12-13T16:21:29.979Z,10.93
2022-12-13T16:26:34.634Z,11.57
2022-12-13T16:31:37.220Z,9.63
2022-12-13T16:36:40.115Z,13.70
2022-12-13T16:41:47.009Z,13.13
2022-12-13T16:47:11.503Z,10.77
2022-12-13T16:52:11.433Z,12.80
2022-12-13T16:57:14.606Z,15.90
2022-12-13T17:02:17.758Z,12.13
2022-12-13T17:07:19.737Z,15.03
2022-12-13T17:12:24.574Z,10.13
2022-12-13T17:17:26.698Z,14.03
2022-12-13T17:22:28.503Z,14.60
2022-12-13T17:27:31.828Z,16.23
2022-12-13T17:32:33.881Z,13.73
2022-12-13T17:37:35.943Z,14.67
2022-12-13T17:42:39.044Z,12.33
2022-12-13T17:47:40.794Z,12.30
2022-12-13T17:52:42.648Z,16.20
2022-12-13T17:57:46.201Z,17.90
2022-12-13T18:02:55.119Z,15.47
2022-12-13T18:07:58.005Z,14.33
2022-12-13T18:13:01.187Z,18.97
2022-12-13T18:18:11.376Z,18.10
2022-12-13T18:23:14.679Z,15.93
2022-12-13T18:28:18.215Z,18.17
2022-12-13T18:33:20.892Z,24.30
2022-12-13T18:38:23.391Z,25.03
2022-12-13T18:43:27.088Z,36.27
2022-12-13T18:48:29.380Z,34.83
2022-12-13T18:53:32.288Z,34.67
2022-12-13T18:58:36.226Z,37.23
2022-12-13T19:03:39.109Z,35.63
2022-12-13T19:08:40.925Z,31.30
2022-12-13T19:13:45.081Z,32.67
2022-12-13T19:18:47.835Z,33.50
2022-12-13T19:23:56.923Z,38.47
2022-12-13T19:29:02.079Z,34.57
2022-12-13T19:34:04.437Z,32.60
2022-12-13T19:39:06.675Z,26.90
2022-12-13T19:44:11.353Z,23.27
2022-12-13T19:49:13.896Z,27.20
2022-12-13T19:54:16.165Z,19.53
2022-12-13T19:59:19.959Z,15.40
2022-12-13T20:04:23.454Z,22.37
2022-12-13T20:09:26.006Z,23.97
2022-12-13T20:14:30.018Z,15.47
2022-12-13T20:19:32.257Z,22.53
2022-12-13T20:24:34.689Z,17.33
2022-12-13T20:29:38.483Z,23.27
2022-12-13T20:34:40.891Z,17.90
2022-12-13T20:39:43.193Z,18.67
2022-12-13T20:44:46.525Z,20.20
2022-12-13T20:49:48.942Z,16.90
2022-12-13T20:54:51.408Z,14.90
2022-12-13T20:59:54.671Z,16.40
2022-12-13T21:04:57.878Z,21.33
2022-12-13T21:10:03.689Z,14.20
2022-12-13T21:15:08.415Z,15.53
2022-12-13T21:20:10.440Z,16.87
2022-12-13T21:25:12.464Z,15.63
2022-12-13T21:30:15.680Z,16.03
2022-12-13T21:35:17.696Z,16.90
2022-12-13T21:40:19.882Z,16.47
2022-12-13T21:45:23.699Z,12.07
2022-12-13T21:50:25.532Z,15.10
2022-12-13T21:55:38.933Z,14.30
2022-12-13T22:00:43.111Z,12.77
2022-12-13T22:05:45.284Z,11.50
2022-12-13T22:10:46.993Z,17.40
2022-12-13T22:15:51.149Z,14.77
2022-12-13T22:20:56.475Z,19.30
2022-12-13T22:25:58.577Z,14.50
2022-12-13T22:31:02.280Z,12.33
2022-12-13T22:36:04.734Z,7.97
2022-12-13T22:41:06.978Z,11.40
2022-12-13T22:46:12.847Z,9.73
2022-12-13T22:51:17.081Z,11.87
2022-12-13T22:56:21.317Z,9.87
2022-12-13T23:01:28.900Z,11.47
2022-12-13T23:06:34.137Z,13.57
2022-12-13T23:11:36.532Z,13.03
2022-12-13T23:16:40.634Z,16.50
2022-12-13T23:21:43.306Z,12.47
2022-12-13T23:26:50.730Z,14.83
2022-12-13T23:31:54.252Z,14.87
2022-12-13T23:36:56.548Z,12.50
2022-12-13T23:41:58.618Z,11.43
2022-12-13T23:47:02.080Z,8.67
2022-12-13T23:52:04.384Z,16.50
2022-12-13T23:57:06.380Z,8.77
